sensor_id;sensor_type;location;lat;lon;timestamp;temperature;humidity
26049;DHT22;13822;51.568;5.086;2023-09-19T05:09:50;14.20;99.90
26049;DHT22;13822;51.568;5.086;2023-09-19T05:14:52;14.10;99.90
26049;DHT22;13822;51.568;5.086;2023-09-19T05:19:54;14.20;99.90
26049;DHT22;13822;51.568;5.086;2023-09-19T05:24:56;14.20;99.90
26049;DHT22;13822;51.568;5.086;2023-09-19T05:29:58;14.20;99.90
26049;DHT22;13822;51.568;5.086;2023-09-19T05:34:59;14.20;99.90
26049;DHT22;13822;51.568;5.086;2023-09-19T05:40:02;14.20;99.90
26049;DHT22;13822;51.568;5.086;2023-09-19T05:45:11;14.20;99.90
26049;DHT22;13822;51.568;5.086;2023-09-19T05:50:14;14.10;99.90
26049;DHT22;13822;51.568;5.086;2023-09-19T05:55:18;14.20;99.90
26049;DHT22;13822;51.568;5.086;2023-09-19T06:00:20;14.20;99.90
26049;DHT22;13822;51.568;5.086;2023-09-19T06:05:26;14.10;99.90
26049;DHT22;13822;51.568;5.086;2023-09-19T06:10:29;14.20;99.90
26049;DHT22;13822;51.568;5.086;2023-09-19T06:15:34;14.20;99.90
26049;DHT22;13822;51.568;5.086;2023-09-19T06:20:37;14.20;99.90
26049;DHT22;13822;51.568;5.086;2023-09-19T06:25:39;14.20;99.90
26049;DHT22;13822;51.568;5.086;2023-09-19T06:30:42;14.20;99.90
26049;DHT22;13822;51.568;5.086;2023-09-19T06:35:45;14.20;99.90
26049;DHT22;13822;51.568;5.086;2023-09-19T06:40:48;14.20;99.90
26049;DHT22;13822;51.568;5.086;2023-09-19T06:45:50;14.30;99.90
26049;DHT22;13822;51.568;5.086;2023-09-19T06:50:56;14.30;99.90
26049;DHT22;13822;51.568;5.086;2023-09-19T06:56:00;14.30;99.90
26049;DHT22;13822;51.568;5.086;2023-09-19T07:01:02;14.40;99.90
26049;DHT22;13822;51.568;5.086;2023-09-19T07:06:05;14.40;99.90
26049;DHT22;13822;51.568;5.086;2023-09-19T07:11:06;14.40;99.90
26049;DHT22;13822;51.568;5.086;2023-09-19T07:16:08;14.50;99.90
26049;DHT22;13822;51.568;5.086;2023-09-19T07:21:12;14.50;99.90
26049;DHT22;13822;51.568;5.086;2023-09-19T07:26:17;14.60;99.90
26049;DHT22;13822;51.568;5.086;2023-09-19T07:31:18;14.60;99.90
26049;DHT22;13822;51.568;5.086;2023-09-19T07:36:21;14.80;99.90
26049;DHT22;13822;51.568;5.086;2023-09-19T07:41:23;14.80;99.90
26049;DHT22;13822;51.568;5.086;2023-09-19T07:46:25;14.90;99.90
26049;DHT22;13822;51.568;5.086;2023-09-19T07:51:30;15.00;99.90
26049;DHT22;13822;51.568;5.086;2023-09-19T07:56:32;15.10;99.90
26049;DHT22;13822;51.568;5.086;2023-09-19T08:01:35;15.20;99.90
26049;DHT22;13822;51.568;5.086;2023-09-19T08:06:39;15.40;99.90
26049;DHT22;13822;51.568;5.086;2023-09-19T08:11:40;15.40;99.90
26049;DHT22;13822;51.568;5.086;2023-09-19T08:16:42;15.60;99.90
26049;DHT22;13822;51.568;5.086;2023-09-19T08:21:46;15.60;99.90
26049;DHT22;13822;51.568;5.086;2023-09-19T08:26:48;15.70;99.90
26049;DHT22;13822;51.568;5.086;2023-09-19T08:31:53;15.80;99.90
26049;DHT22;13822;51.568;5.086;2023-09-19T08:37:00;16.00;99.90
26049;DHT22;13822;51.568;5.086;2023-09-19T08:42:02;16.10;99.90
26049;DHT22;13822;51.568;5.086;2023-09-19T08:47:13;16.10;99.90
26049;DHT22;13822;51.568;5.086;2023-09-19T08:52:20;16.20;99.90
26049;DHT22;13822;51.568;5.086;2023-09-19T08:57:26;16.30;99.90
26049;DHT22;13822;51.568;5.086;2023-09-19T09:02:30;16.60;99.90
26049;DHT22;13822;51.568;5.086;2023-09-19T09:07:39;16.80;99.90
26049;DHT22;13822;51.568;5.086;2023-09-19T09:12:42;16.90;99.90
26049;DHT22;13822;51.568;5.086;2023-09-19T09:17:46;17.00;99.90
26049;DHT22;13822;51.568;5.086;2023-09-19T09:22:51;17.10;99.90
26049;DHT22;13822;51.568;5.086;2023-09-19T09:27:58;17.20;99.90
26049;DHT22;13822;51.568;5.086;2023-09-19T09:33:11;17.30;99.90
26049;DHT22;13822;51.568;5.086;2023-09-19T09:38:14;17.40;99.90
26049;DHT22;13822;51.568;5.086;2023-09-19T09:43:30;17.60;99.90
26049;DHT22;13822;51.568;5.086;2023-09-19T09:48:43;17.70;99.90
26049;DHT22;13822;51.568;5.086;2023-09-19T09:53:52;17.90;99.90
26049;DHT22;13822;51.568;5.086;2023-09-19T09:58:54;18.10;99.90
26049;DHT22;13822;51.568;5.086;2023-09-19T10:04:01;18.20;99.90
26049;DHT22;13822;51.568;5.086;2023-09-19T10:09:07;18.40;99.90
26049;DHT22;13822;51.568;5.086;2023-09-19T10:14:16;18.60;99.90
26049;DHT22;13822;51.568;5.086;2023-09-19T10:24:24;19.00;99.90
26049;DHT22;13822;51.568;5.086;2023-09-19T10:29:28;19.10;99.90
26049;DHT22;13822;51.568;5.086;2023-09-19T10:34:34;19.30;99.90
26049;DHT22;13822;51.568;5.086;2023-09-19T10:39:37;19.40;99.90
26049;DHT22;13822;51.568;5.086;2023-09-19T10:44:42;19.70;99.90
26049;DHT22;13822;51.568;5.086;2023-09-19T10:49:45;20.00;99.90
26049;DHT22;13822;51.568;5.086;2023-09-19T10:54:52;20.00;99.90
26049;DHT22;13822;51.568;5.086;2023-09-19T11:00:01;20.10;99.90
26049;DHT22;13822;51.568;5.086;2023-09-19T11:05:15;20.20;99.90
26049;DHT22;13822;51.568;5.086;2023-09-19T11:26:43;21.30;99.90
26049;DHT22;13822;51.568;5.086;2023-09-19T11:31:49;21.60;99.90
26049;DHT22;13822;51.568;5.086;2023-09-19T11:36:52;21.70;99.90
26049;DHT22;13822;51.568;5.086;2023-09-19T11:41:55;21.80;99.90
26049;DHT22;13822;51.568;5.086;2023-09-19T11:47:02;21.70;99.90
26049;DHT22;13822;51.568;5.086;2023-09-19T11:52:05;21.70;99.90
26049;DHT22;13822;51.568;5.086;2023-09-19T11:57:07;21.80;99.90
26049;DHT22;13822;51.568;5.086;2023-09-19T12:02:09;21.80;99.90
26049;DHT22;13822;51.568;5.086;2023-09-19T12:07:42;22.00;99.90
26049;DHT22;13822;51.568;5.086;2023-09-19T12:12:48;22.00;99.90
26049;DHT22;13822;51.568;5.086;2023-09-19T12:17:50;21.60;99.90
26049;DHT22;13822;51.568;5.086;2023-09-19T12:22:53;21.10;99.90
26049;DHT22;13822;51.568;5.086;2023-09-19T12:27:56;20.70;99.90
26049;DHT22;13822;51.568;5.086;2023-09-19T12:32:59;20.50;99.90
26049;DHT22;13822;51.568;5.086;2023-09-19T12:38:04;20.50;99.90
26049;DHT22;13822;51.568;5.086;2023-09-19T12:43:07;20.50;99.90
26049;DHT22;13822;51.568;5.086;2023-09-19T12:53:26;20.90;99.90
26049;DHT22;13822;51.568;5.086;2023-09-19T12:58:31;21.00;99.90
26049;DHT22;13822;51.568;5.086;2023-09-19T13:03:34;20.90;99.90
26049;DHT22;13822;51.568;5.086;2023-09-19T13:08:41;20.60;99.90
26049;DHT22;13822;51.568;5.086;2023-09-19T13:14:12;20.40;99.90
26049;DHT22;13822;51.568;5.086;2023-09-19T13:19:34;20.40;99.90
26049;DHT22;13822;51.568;5.086;2023-09-19T13:24:36;20.20;99.90
26049;DHT22;13822;51.568;5.086;2023-09-19T13:29:41;20.20;99.90
26049;DHT22;13822;51.568;5.086;2023-09-19T13:34:44;20.10;99.90
26049;DHT22;13822;51.568;5.086;2023-09-19T13:39:46;20.10;99.90
26049;DHT22;13822;51.568;5.086;2023-09-19T13:44:49;20.20;99.90
26049;DHT22;13822;51.568;5.086;2023-09-19T13:49:52;20.30;99.90
26049;DHT22;13822;51.568;5.086;2023-09-19T13:54:54;20.30;99.90
26049;DHT22;13822;51.568;5.086;2023-09-19T13:59:58;20.20;99.90
26049;DHT22;13822;51.568;5.086;2023-09-19T14:05:00;20.30;99.90
26049;DHT22;13822;51.568;5.086;2023-09-19T14:10:03;20.40;99.90
26049;DHT22;13822;51.568;5.086;2023-09-19T14:15:08;20.50;99.90
26049;DHT22;13822;51.568;5.086;2023-09-19T14:20:11;20.40;99.90
26049;DHT22;13822;51.568;5.086;2023-09-19T14:25:13;20.30;99.90
26049;DHT22;13822;51.568;5.086;2023-09-19T14:30:15;20.20;99.90
26049;DHT22;13822;51.568;5.086;2023-09-19T14:35:17;20.20;99.90
26049;DHT22;13822;51.568;5.086;2023-09-19T14:40:19;20.10;99.90
26049;DHT22;13822;51.568;5.086;2023-09-19T14:45:21;20.10;99.90
26049;DHT22;13822;51.568;5.086;2023-09-19T14:50:23;20.10;99.90
26049;DHT22;13822;51.568;5.086;2023-09-19T14:55:25;20.10;99.90
26049;DHT22;13822;51.568;5.086;2023-09-19T15:00:29;20.00;99.90
26049;DHT22;13822;51.568;5.086;2023-09-19T15:05:30;20.00;99.90
26049;DHT22;13822;51.568;5.086;2023-09-19T15:10:33;20.00;99.90
26049;DHT22;13822;51.568;5.086;2023-09-19T15:15:35;20.00;99.90
26049;DHT22;13822;51.568;5.086;2023-09-19T15:20:42;19.90;99.90
26049;DHT22;13822;51.568;5.086;2023-09-19T15:25:48;19.90;99.90
26049;DHT22;13822;51.568;5.086;2023-09-19T15:30:56;19.90;99.90
26049;DHT22;13822;51.568;5.086;2023-09-19T15:36:09;19.90;99.90
26049;DHT22;13822;51.568;5.086;2023-09-19T15:41:12;19.80;99.90
26049;DHT22;13822;51.568;5.086;2023-09-19T15:46:15;19.80;99.90
26049;DHT22;13822;51.568;5.086;2023-09-19T15:51:20;19.70;99.90
26049;DHT22;13822;51.568;5.086;2023-09-19T15:56:24;19.70;99.90
26049;DHT22;13822;51.568;5.086;2023-09-19T16:01:26;19.70;99.90
26049;DHT22;13822;51.568;5.086;2023-09-19T16:06:28;19.60;99.90
26049;DHT22;13822;51.568;5.086;2023-09-19T16:11:32;19.60;99.90
26049;DHT22;13822;51.568;5.086;2023-09-19T16:16:35;19.60;99.90
26049;DHT22;13822;51.568;5.086;2023-09-19T16:21:38;19.50;99.90
26049;DHT22;13822;51.568;5.086;2023-09-19T16:26:42;19.40;99.90
26049;DHT22;13822;51.568;5.086;2023-09-19T16:31:44;19.40;99.90
26049;DHT22;13822;51.568;5.086;2023-09-19T16:36:46;19.30;99.90
26049;DHT22;13822;51.568;5.086;2023-09-19T16:41:49;19.30;99.90
26049;DHT22;13822;51.568;5.086;2023-09-19T16:46:51;19.30;99.90
26049;DHT22;13822;51.568;5.086;2023-09-19T16:51:53;19.20;99.90
26049;DHT22;13822;51.568;5.086;2023-09-19T16:56:55;19.20;99.90
26049;DHT22;13822;51.568;5.086;2023-09-19T17:01:58;19.20;99.90
26049;DHT22;13822;51.568;5.086;2023-09-19T17:07:00;19.20;99.90
26049;DHT22;13822;51.568;5.086;2023-09-19T17:12:02;19.10;99.90
26049;DHT22;13822;51.568;5.086;2023-09-19T17:17:04;19.10;99.90
26049;DHT22;13822;51.568;5.086;2023-09-19T17:22:06;19.10;99.90
26049;DHT22;13822;51.568;5.086;2023-09-19T17:27:09;18.90;99.90
26049;DHT22;13822;51.568;5.086;2023-09-19T17:32:11;18.80;99.90
26049;DHT22;13822;51.568;5.086;2023-09-19T17:37:12;18.60;99.90
26049;DHT22;13822;51.568;5.086;2023-09-19T17:42:14;18.30;99.90
26049;DHT22;13822;51.568;5.086;2023-09-19T17:47:18;18.10;99.90
26049;DHT22;13822;51.568;5.086;2023-09-19T17:52:20;18.00;99.90
26049;DHT22;13822;51.568;5.086;2023-09-19T17:57:22;17.80;99.90
26049;DHT22;13822;51.568;5.086;2023-09-19T18:02:24;17.70;99.90
26049;DHT22;13822;51.568;5.086;2023-09-19T18:07:28;17.70;99.90
26049;DHT22;13822;51.568;5.086;2023-09-19T18:12:32;17.60;99.90
26049;DHT22;13822;51.568;5.086;2023-09-19T18:17:34;17.50;99.90
26049;DHT22;13822;51.568;5.086;2023-09-19T18:22:37;17.40;99.90
26049;DHT22;13822;51.568;5.086;2023-09-19T18:27:39;17.40;99.90
26049;DHT22;13822;51.568;5.086;2023-09-19T18:32:43;17.30;99.90
26049;DHT22;13822;51.568;5.086;2023-09-19T18:37:45;17.30;99.90
26049;DHT22;13822;51.568;5.086;2023-09-19T18:42:50;17.20;99.90
26049;DHT22;13822;51.568;5.086;2023-09-19T18:47:53;17.20;99.90
26049;DHT22;13822;51.568;5.086;2023-09-19T18:52:56;17.20;99.90
